createdAt,value
2023-04-01T00:00:54.510Z,10.13
2023-04-01T00:04:56.790Z,9.90
2023-04-01T00:08:58.902Z,9.65
2023-04-01T00:13:01.500Z,9.59
2023-04-01T00:17:04.216Z,9.70
2023-04-01T00:21:07.436Z,9.45
2023-04-01T00:25:10.435Z,9.28
2023-04-01T00:29:12.647Z,8.92
2023-04-01T00:33:14.891Z,8.90
2023-04-01T00:37:17.250Z,8.77
2023-04-01T00:41:22.470Z,9.10
2023-04-01T00:45:32.507Z,9.08
2023-04-01T00:49:40.144Z,8.95
2023-04-01T00:53:49.745Z,8.85
2023-04-01T00:57:54.517Z,8.62
2023-04-01T01:01:56.921Z,8.70
2023-04-01T01:06:02.955Z,8.92
2023-04-01T01:10:28.377Z,9.29
2023-04-01T01:14:56.363Z,9.48
2023-04-01T01:19:39.908Z,9.32
2023-04-01T01:23:42.416Z,9.54
2023-04-01T01:27:55.717Z,9.64
2023-04-01T01:32:14.814Z,9.74
2023-04-01T01:36:20.204Z,9.61
2023-04-01T01:40:23.395Z,9.27
2023-04-01T01:44:29.400Z,9.32
2023-04-01T01:48:32.823Z,9.16
2023-04-01T01:52:35.059Z,8.74
2023-04-01T01:56:37.942Z,8.81
2023-04-01T02:00:42.031Z,8.55
2023-04-01T02:04:47.211Z,8.32
2023-04-01T02:09:02.079Z,8.20
2023-04-01T02:13:14.976Z,8.09
2023-04-01T02:17:20.729Z,8.09
2023-04-01T02:21:27.927Z,8.02
2023-04-01T02:25:35.303Z,8.01
2023-04-01T02:29:37.974Z,8.09
2023-04-01T02:33:43.229Z,8.06
2023-04-01T02:37:49.627Z,8.19
2023-04-01T02:41:51.730Z,8.16
2023-04-01T02:45:54.655Z,8.38
2023-04-01T02:49:59.668Z,8.41
2023-04-01T02:54:02.280Z,8.33
2023-04-01T02:58:05.387Z,8.47
2023-04-01T03:02:08.360Z,8.54
2023-04-01T03:06:13.865Z,8.73
2023-04-01T03:10:16.425Z,8.96
2023-04-01T03:14:18.638Z,8.94
2023-04-01T03:18:21.131Z,8.67
2023-04-01T03:22:23.351Z,8.76
2023-04-01T03:26:28.009Z,8.74
2023-04-01T03:30:33.309Z,8.93
2023-04-01T03:34:35.879Z,9.05
2023-04-01T03:38:39.024Z,9.08
2023-04-01T03:42:41.375Z,8.61
2023-04-01T03:46:44.068Z,7.92
2023-04-01T03:50:46.373Z,7.83
2023-04-01T03:54:49.033Z,7.45
2023-04-01T03:58:51.581Z,7.29
2023-04-01T04:02:53.755Z,7.21
2023-04-01T04:07:01.669Z,6.97
2023-04-01T04:11:10.069Z,6.81
2023-04-01T04:15:16.337Z,6.80
2023-04-01T04:19:18.912Z,6.95
2023-04-01T04:23:21.679Z,6.89
2023-04-01T04:27:24.258Z,7.04
2023-04-01T04:31:38.219Z,7.14
2023-04-01T04:35:40.480Z,7.17
2023-04-01T04:39:42.748Z,7.22
2023-04-01T04:43:54.131Z,7.42
2023-04-01T04:47:57.479Z,7.28
2023-04-01T04:51:59.526Z,7.36
2023-04-01T04:56:03.313Z,7.39
2023-04-01T05:00:28.588Z,7.11
2023-04-01T05:04:37.589Z,7.07
2023-04-01T05:08:43.825Z,6.78
2023-04-01T05:12:46.232Z,6.61
2023-04-01T05:16:53.382Z,6.60
2023-04-01T05:20:56.163Z,6.75
2023-04-01T05:24:58.610Z,6.95
2023-04-01T05:29:01.208Z,7.12
2023-04-01T05:33:03.613Z,7.06
2023-04-01T05:37:06.219Z,7.10
2023-04-01T05:41:08.352Z,7.13
2023-04-01T05:45:16.502Z,7.29
2023-04-01T05:49:36.878Z,7.65
2023-04-01T05:53:40.323Z,8.03
2023-04-01T05:57:42.426Z,8.26
2023-04-01T06:01:44.936Z,8.38
2023-04-01T06:05:48.867Z,8.56
2023-04-01T06:09:51.004Z,8.93
2023-04-01T06:14:19.008Z,9.10
2023-04-01T06:18:24.067Z,9.37
2023-04-01T06:22:48.141Z,9.37
2023-04-01T06:27:17.485Z,9.36
2023-04-01T06:31:48.972Z,9.50
2023-04-01T06:35:57.280Z,9.75
2023-04-01T06:40:41.716Z,10.00
2023-04-01T06:44:56.585Z,10.43
2023-04-01T06:49:42.911Z,10.66
2023-04-01T06:54:22.715Z,10.91
2023-04-01T06:58:55.565Z,10.98
2023-04-01T07:03:04.914Z,11.47
2023-04-01T07:07:36.649Z,11.81
2023-04-01T07:11:43.273Z,11.99
2023-04-01T07:16:21.191Z,12.19
2023-04-01T07:20:33.371Z,12.40
2023-04-01T07:24:42.776Z,12.53
2023-04-01T07:28:46.382Z,12.68
2023-04-01T07:33:12.419Z,12.69
2023-04-01T07:37:56.037Z,12.59
2023-04-01T07:42:55.550Z,12.68
2023-04-01T07:47:07.292Z,12.93
2023-04-01T07:51:18.820Z,13.16
2023-04-01T07:56:03.181Z,13.57
2023-04-01T08:00:46.257Z,13.71
2023-04-01T08:05:14.699Z,13.81
2023-04-01T08:09:24.917Z,14.08
2023-04-01T08:13:57.151Z,14.14
2023-04-01T08:18:54.865Z,13.99
2023-04-01T08:23:32.539Z,14.15
2023-04-01T08:27:46.739Z,14.31
2023-04-01T08:32:07.087Z,14.60
2023-04-01T08:36:21.866Z,14.73
2023-04-01T08:40:51.789Z,14.83
2023-04-01T08:45:14.657Z,15.22
2023-04-01T08:49:35.810Z,15.48
2023-04-01T08:53:47.801Z,15.40
2023-04-01T08:58:07.957Z,15.33
2023-04-01T09:02:40.472Z,15.29
2023-04-01T09:07:46.875Z,15.32
2023-04-01T09:12:07.602Z,15.94
2023-04-01T09:16:28.797Z,16.01
2023-04-01T09:20:40.800Z,16.20
2023-04-01T09:25:14.334Z,15.97
2023-04-01T09:29:39.018Z,15.72
2023-04-01T09:34:00.923Z,15.63
2023-04-01T09:38:37.075Z,15.30
2023-04-01T09:42:57.884Z,15.72
2023-04-01T09:47:29.466Z,15.92
2023-04-01T09:51:38.586Z,15.81
2023-04-01T09:56:21.190Z,15.67
2023-04-01T10:00:35.628Z,15.85
2023-04-01T10:05:06.278Z,16.05
2023-04-01T10:09:26.798Z,16.36
2023-04-01T10:13:51.274Z,16.81
2023-04-01T10:17:59.704Z,17.35
2023-04-01T10:22:18.284Z,17.61
2023-04-01T10:26:56.576Z,17.54
2023-04-01T10:31:35.727Z,17.32
2023-04-01T10:35:50.288Z,17.20
2023-04-01T10:40:26.702Z,17.48
2023-04-01T10:45:20.042Z,17.54
2023-04-01T10:49:25.623Z,17.61
2023-04-01T10:54:13.210Z,17.50
2023-04-01T10:59:06.229Z,17.65
2023-04-01T11:03:54.550Z,17.59
2023-04-01T11:08:37.744Z,17.62
2023-04-01T11:13:04.707Z,17.85
2023-04-01T11:17:19.033Z,18.19
2023-04-01T11:21:43.617Z,18.43
2023-04-01T11:26:05.815Z,18.71
2023-04-01T11:30:50.204Z,18.97
2023-04-01T11:35:30.328Z,19.13
2023-04-01T11:39:38.720Z,19.24
2023-04-01T11:44:22.672Z,19.21
2023-04-01T11:49:06.953Z,19.08
2023-04-01T11:53:16.395Z,19.05
2023-04-01T11:57:34.548Z,19.11
2023-04-01T12:02:01.599Z,19.19
2023-04-01T12:06:12.510Z,19.23
2023-04-01T12:10:23.069Z,19.34
2023-04-01T12:14:34.303Z,19.24
2023-04-01T12:18:47.657Z,19.53
2023-04-01T12:23:22.499Z,19.61
2023-04-01T12:27:36.627Z,19.67
2023-04-01T12:32:03.589Z,19.36
2023-04-01T12:36:20.218Z,19.20
2023-04-01T12:40:29.614Z,19.19
2023-04-01T12:44:53.636Z,18.67
2023-04-01T12:49:17.159Z,18.44
2023-04-01T12:53:58.299Z,18.57
2023-04-01T12:58:07.274Z,18.55
2023-04-01T13:02:09.772Z,18.73
2023-04-01T13:06:45.657Z,18.79
2023-04-01T13:11:18.413Z,18.93
2023-04-01T13:15:44.480Z,18.83
2023-04-01T13:20:17.025Z,18.95
2023-04-01T13:24:25.289Z,18.80
2023-04-01T13:28:55.090Z,19.15
2023-04-01T13:33:10.773Z,18.87
2023-04-01T13:37:36.070Z,19.25
2023-04-01T13:42:14.000Z,19.13
2023-04-01T13:46:19.251Z,19.38
2023-04-01T13:51:15.958Z,19.18
2023-04-01T13:55:18.127Z,18.94
2023-04-01T13:59:41.845Z,18.95
2023-04-01T14:04:01.181Z,18.89
2023-04-01T14:08:21.452Z,18.81
2023-04-01T14:13:01.103Z,19.02
2023-04-01T14:17:18.486Z,19.25
2023-04-01T14:21:37.328Z,19.33
2023-04-01T14:26:17.205Z,19.35
2023-04-01T14:30:19.237Z,19.26
2023-04-01T14:35:03.058Z,19.44
2023-04-01T14:39:42.409Z,19.37
2023-04-01T14:44:08.237Z,19.10
2023-04-01T14:48:48.064Z,19.24
2023-04-01T14:53:11.595Z,19.04
2023-04-01T14:57:15.263Z,18.93
2023-04-01T15:01:29.472Z,18.72
2023-04-01T15:05:56.737Z,18.74
2023-04-01T15:10:11.039Z,19.20
2023-04-01T15:14:27.789Z,19.30
2023-04-01T15:18:44.441Z,19.35
2023-04-01T15:23:02.062Z,19.21
2023-04-01T15:27:23.210Z,18.78
2023-04-01T15:31:33.211Z,18.57
2023-04-01T15:35:52.711Z,18.71
2023-04-01T15:40:21.183Z,18.80
2023-04-01T15:44:43.548Z,18.69
2023-04-01T15:49:12.444Z,18.24
2023-04-01T15:53:47.817Z,18.34
2023-04-01T15:58:02.362Z,18.28
2023-04-01T16:02:22.898Z,19.53
2023-04-01T16:06:35.264Z,20.79
2023-04-01T16:11:19.724Z,20.86
2023-04-01T16:15:34.118Z,20.89
2023-04-01T16:20:10.798Z,21.61
2023-04-01T16:24:42.595Z,21.42
2023-04-01T16:28:56.330Z,21.34
2023-04-01T16:33:06.013Z,20.54
2023-04-01T16:37:16.866Z,18.86
2023-04-01T16:41:31.529Z,18.61
2023-04-01T16:45:46.221Z,18.89
2023-04-01T16:49:56.350Z,18.73
2023-04-01T16:54:15.703Z,18.49
2023-04-01T16:58:26.184Z,18.16
2023-04-01T17:02:35.164Z,17.34
2023-04-01T17:07:01.833Z,17.20
2023-04-01T17:11:20.143Z,17.34
2023-04-01T17:15:44.172Z,17.33
2023-04-01T17:20:17.438Z,17.26
2023-04-01T17:24:57.212Z,17.18
2023-04-01T17:29:26.099Z,16.63
2023-04-01T17:33:51.408Z,16.27
2023-04-01T17:38:22.545Z,15.79
2023-04-01T17:42:56.575Z,15.32
2023-04-01T17:47:20.559Z,15.10
2023-04-01T17:51:31.876Z,14.78
2023-04-01T17:55:46.529Z,14.55
2023-04-01T18:00:03.947Z,14.37
2023-04-01T18:04:26.445Z,14.09
2023-04-01T18:08:47.290Z,13.68
2023-04-01T18:13:01.869Z,13.69
2023-04-01T18:17:22.803Z,13.28
2023-04-01T18:21:48.651Z,13.05
2023-04-01T18:26:05.375Z,12.95
2023-04-01T18:30:19.196Z,12.70
2023-04-01T18:34:39.519Z,12.48
2023-04-01T18:38:50.129Z,12.31
2023-04-01T18:43:01.167Z,12.14
2023-04-01T18:47:26.455Z,12.03
2023-04-01T18:51:41.236Z,11.94
2023-04-01T18:55:47.651Z,11.99
2023-04-01T18:59:58.766Z,11.94
2023-04-01T19:04:19.848Z,11.85
2023-04-01T19:08:32.410Z,11.86
2023-04-01T19:12:42.013Z,11.85
2023-04-01T19:17:03.041Z,11.83
2023-04-01T19:21:11.718Z,11.86
2023-04-01T19:25:26.703Z,11.80
2023-04-01T19:29:32.143Z,11.48
2023-04-01T19:33:42.877Z,11.28
2023-04-01T19:38:23.336Z,11.14
2023-04-01T19:42:49.932Z,10.97
2023-04-01T19:47:33.894Z,10.90
2023-04-01T19:51:48.404Z,10.77
2023-04-01T19:56:06.090Z,10.74
2023-04-01T20:00:38.268Z,10.94
2023-04-01T20:04:52.312Z,10.99
2023-04-01T20:09:09.785Z,11.01
2023-04-01T20:13:24.996Z,11.01
2023-04-01T20:17:38.195Z,10.94
2023-04-01T20:21:40.415Z,10.60
2023-04-01T20:25:50.031Z,10.51
2023-04-01T20:30:29.279Z,10.32
2023-04-01T20:34:37.379Z,10.25
2023-04-01T20:38:58.643Z,10.11
2023-04-01T20:43:03.775Z,9.96
2023-04-01T20:47:19.741Z,9.92
2023-04-01T20:51:31.960Z,9.87
2023-04-01T20:55:57.811Z,9.77
2023-04-01T21:00:18.552Z,9.98
2023-04-01T21:05:05.037Z,9.86
2023-04-01T21:09:32.017Z,10.02
2023-04-01T21:14:06.978Z,9.90
2023-04-01T21:18:31.362Z,9.83
2023-04-01T21:23:21.473Z,9.84
2023-04-01T21:27:43.186Z,9.94
2023-04-01T21:32:07.097Z,9.67
2023-04-01T21:36:16.769Z,9.81
2023-04-01T21:40:46.672Z,9.86
2023-04-01T21:44:57.036Z,9.91
2023-04-01T21:49:11.564Z,9.90
2023-04-01T21:54:08.057Z,9.91
2023-04-01T21:58:41.265Z,9.85
2023-04-01T22:02:50.542Z,9.73
2023-04-01T22:07:14.076Z,9.77
2023-04-01T22:11:23.288Z,9.64
2023-04-01T22:16:12.560Z,9.71
2023-04-01T22:20:39.654Z,8.95
2023-04-01T22:25:08.071Z,9.04
2023-04-01T22:29:42.907Z,9.13
2023-04-01T22:34:03.564Z,9.27
2023-04-01T22:38:56.885Z,9.44
2023-04-01T22:43:04.513Z,9.55
2023-04-01T22:47:25.420Z,9.55
2023-04-01T22:51:46.200Z,9.34
2023-04-01T22:55:52.719Z,9.38
2023-04-01T23:00:02.216Z,9.41
2023-04-01T23:04:10.417Z,9.27
2023-04-01T23:08:52.767Z,9.12
2023-04-01T23:12:59.927Z,9.13
2023-04-01T23:17:10.418Z,8.99
2023-04-01T23:21:30.333Z,8.92
2023-04-01T23:25:54.558Z,8.88
2023-04-01T23:29:57.124Z,8.75
2023-04-01T23:34:24.521Z,8.55
2023-04-01T23:38:27.685Z,8.58
2023-04-01T23:42:41.375Z,8.52
2023-04-01T23:46:47.676Z,8.42
2023-04-01T23:50:49.866Z,8.37
2023-04-01T23:55:10.598Z,8.29
2023-04-01T23:59:23.305Z,8.18
